createdAt,value
2023-05-06T00:01:20.356Z,4.60
2023-05-06T00:03:47.922Z,3.55
2023-05-06T00:06:14.799Z,5.10
2023-05-06T00:09:44.529Z,4.70
2023-05-06T00:12:11.253Z,4.40
2023-05-06T00:14:37.869Z,4.93
2023-05-06T00:17:04.469Z,4.60
2023-05-06T00:19:31.330Z,4.43
2023-05-06T00:21:58.625Z,5.13
2023-05-06T00:24:25.291Z,5.70
2023-05-06T00:26:53.431Z,5.30
2023-05-06T00:29:20.101Z,5.28
2023-05-06T00:31:47.395Z,6.18
2023-05-06T00:34:14.103Z,5.53
2023-05-06T00:36:42.774Z,5.57
2023-05-06T00:39:09.930Z,5.83
2023-05-06T00:41:37.193Z,5.47
2023-05-06T00:44:04.070Z,7.32
2023-05-06T00:46:30.842Z,7.10
2023-05-06T00:48:57.675Z,5.30
2023-05-06T00:51:24.700Z,7.07
2023-05-06T00:53:51.464Z,7.70
2023-05-06T00:56:20.559Z,7.60
2023-05-06T00:58:48.232Z,9.95
2023-05-06T01:01:15.058Z,8.15
2023-05-06T01:03:41.785Z,6.03
2023-05-06T01:06:20.607Z,7.55
2023-05-06T01:09:05.989Z,7.70
2023-05-06T01:11:57.607Z,7.60
2023-05-06T01:15:03.155Z,7.30
2023-05-06T01:17:31.862Z,8.00
2023-05-06T01:20:01.684Z,7.68
2023-05-06T01:22:30.356Z,7.45
2023-05-06T01:24:56.971Z,7.05
2023-05-06T01:27:24.817Z,7.43
2023-05-06T01:29:51.748Z,7.50
2023-05-06T01:32:22.028Z,7.47
2023-05-06T01:35:13.776Z,6.80
2023-05-06T01:37:57.500Z,10.95
2023-05-06T01:40:27.074Z,12.52
2023-05-06T01:42:55.280Z,14.13
2023-05-06T01:45:24.362Z,9.98
2023-05-06T01:47:51.053Z,12.32
2023-05-06T01:50:17.866Z,13.02
2023-05-06T01:52:44.521Z,12.88
2023-05-06T01:55:12.252Z,9.17
2023-05-06T01:57:39.416Z,9.82
2023-05-06T02:00:06.685Z,7.80
2023-05-06T02:02:38.972Z,8.45
2023-05-06T02:05:06.582Z,13.98
2023-05-06T02:07:35.341Z,15.57
2023-05-06T02:10:02.250Z,14.77
2023-05-06T02:12:31.147Z,11.80
2023-05-06T02:14:57.752Z,12.13
2023-05-06T02:17:27.402Z,10.13
2023-05-06T02:19:53.985Z,14.70
2023-05-06T02:22:20.621Z,16.05
2023-05-06T02:24:47.269Z,14.07
2023-05-06T02:27:13.889Z,16.95
2023-05-06T02:29:40.488Z,11.07
2023-05-06T02:32:07.548Z,10.03
2023-05-06T02:34:34.492Z,9.75
2023-05-06T02:37:01.264Z,10.80
2023-05-06T02:39:27.925Z,11.38
2023-05-06T02:41:54.513Z,10.80
2023-05-06T02:44:21.081Z,15.73
2023-05-06T02:46:47.736Z,12.07
2023-05-06T02:49:14.392Z,12.82
2023-05-06T02:51:40.922Z,14.52
2023-05-06T02:54:07.681Z,11.32
2023-05-06T02:56:35.198Z,11.37
2023-05-06T02:59:01.903Z,11.65
2023-05-06T03:01:28.466Z,11.15
2023-05-06T03:03:55.265Z,9.75
2023-05-06T03:06:21.880Z,11.85
2023-05-06T03:08:48.762Z,10.60
2023-05-06T03:11:15.887Z,11.18
2023-05-06T03:13:42.448Z,10.40
2023-05-06T03:16:13.497Z,10.80
2023-05-06T03:18:42.532Z,10.50
2023-05-06T03:21:11.127Z,10.10
2023-05-06T03:23:39.161Z,8.68
2023-05-06T03:26:06.183Z,10.15
2023-05-06T03:28:33.022Z,9.13
2023-05-06T03:31:01.837Z,8.68
2023-05-06T03:33:29.586Z,11.07
2023-05-06T03:35:56.512Z,9.20
2023-05-06T03:38:23.310Z,9.82
2023-05-06T03:40:56.982Z,8.98
2023-05-06T03:43:24.150Z,9.05
2023-05-06T03:45:54.470Z,8.73
2023-05-06T03:48:21.794Z,8.73
2023-05-06T03:50:48.849Z,8.38
2023-05-06T03:53:16.318Z,9.10
2023-05-06T03:55:45.127Z,10.23
2023-05-06T03:58:12.685Z,8.57
2023-05-06T04:00:41.686Z,9.75
2023-05-06T04:03:08.506Z,8.63
2023-05-06T04:05:43.439Z,8.23
2023-05-06T04:08:12.411Z,7.28
2023-05-06T04:10:40.904Z,8.17
2023-05-06T04:13:14.847Z,7.93
2023-05-06T04:15:43.960Z,9.80
2023-05-06T04:18:19.156Z,9.27
2023-05-06T04:20:53.898Z,6.57
2023-05-06T04:23:20.634Z,8.30
2023-05-06T04:25:51.028Z,8.80
2023-05-06T04:28:20.679Z,10.20
2023-05-06T04:30:51.731Z,8.27
2023-05-06T04:33:20.947Z,7.80
2023-05-06T04:35:55.095Z,8.03
2023-05-06T04:38:27.109Z,7.95
2023-05-06T04:40:55.437Z,8.95
2023-05-06T04:43:22.348Z,7.95
2023-05-06T04:45:55.289Z,8.63
2023-05-06T04:48:26.952Z,8.93
2023-05-06T04:50:56.628Z,8.95
2023-05-06T04:53:23.267Z,10.65
2023-05-06T04:55:49.778Z,10.25
2023-05-06T04:58:17.030Z,8.95
2023-05-06T05:00:44.961Z,8.67
2023-05-06T05:03:11.768Z,10.52
2023-05-06T05:05:38.569Z,12.10
2023-05-06T05:08:13.338Z,12.55
2023-05-06T05:10:46.307Z,11.45
2023-05-06T05:13:17.494Z,14.33
2023-05-06T05:15:44.829Z,12.60
2023-05-06T05:18:13.013Z,15.35
2023-05-06T05:20:39.973Z,14.95
2023-05-06T05:23:09.816Z,11.95
2023-05-06T05:25:37.426Z,16.53
2023-05-06T05:28:04.114Z,12.30
2023-05-06T05:30:32.533Z,17.80
2023-05-06T05:32:59.222Z,16.65
2023-05-06T05:35:26.857Z,16.00
2023-05-06T05:37:54.523Z,18.97
2023-05-06T05:40:21.583Z,20.20
2023-05-06T05:42:51.569Z,18.15
2023-05-06T05:45:25.199Z,19.50
2023-05-06T05:47:53.984Z,16.88
2023-05-06T05:50:22.021Z,13.40
2023-05-06T05:52:49.318Z,18.63
2023-05-06T05:55:16.992Z,18.55
2023-05-06T05:57:46.210Z,15.27
2023-05-06T06:00:13.930Z,19.75
2023-05-06T06:02:46.770Z,17.33
2023-05-06T06:05:18.686Z,19.70
2023-05-06T06:07:45.794Z,19.80
2023-05-06T06:10:14.856Z,19.92
2023-05-06T06:12:44.755Z,16.30
2023-05-06T06:15:15.028Z,20.67
2023-05-06T06:17:44.138Z,17.40
2023-05-06T06:20:13.122Z,20.55
2023-05-06T06:22:40.950Z,16.52
2023-05-06T06:25:08.057Z,15.63
2023-05-06T06:27:36.791Z,17.27
2023-05-06T06:30:04.849Z,19.05
2023-05-06T06:32:31.637Z,15.70
2023-05-06T06:34:58.189Z,17.70
2023-05-06T06:37:24.766Z,14.38
2023-05-06T06:39:51.279Z,19.63
2023-05-06T06:42:17.830Z,19.17
2023-05-06T06:44:57.500Z,21.25
2023-05-06T06:47:24.255Z,19.38
2023-05-06T06:49:50.882Z,19.33
2023-05-06T06:52:17.495Z,14.77
2023-05-06T06:54:44.230Z,15.18
2023-05-06T06:57:11.989Z,20.42
2023-05-06T06:59:38.553Z,19.13
2023-05-06T07:02:05.084Z,14.00
2023-05-06T07:04:31.719Z,21.33
2023-05-06T07:06:58.398Z,14.63
2023-05-06T07:09:24.976Z,16.65
2023-05-06T07:11:51.844Z,18.08
2023-05-06T07:14:18.478Z,19.75
2023-05-06T07:16:46.417Z,20.63
2023-05-06T07:19:13.841Z,20.65
2023-05-06T07:21:40.739Z,18.50
2023-05-06T07:24:07.659Z,13.75
2023-05-06T07:26:37.781Z,19.17
2023-05-06T07:29:04.531Z,20.37
2023-05-06T07:31:34.097Z,16.25
2023-05-06T07:34:00.920Z,16.23
2023-05-06T07:36:28.662Z,21.02
2023-05-06T07:38:55.253Z,19.98
2023-05-06T07:41:21.773Z,17.80
2023-05-06T07:43:48.313Z,20.63
2023-05-06T07:46:14.890Z,21.67
2023-05-06T07:48:41.468Z,23.33
2023-05-06T07:51:08.133Z,22.88
2023-05-06T07:53:35.772Z,23.80
2023-05-06T07:56:03.892Z,23.70
2023-05-06T07:58:31.417Z,22.67
2023-05-06T08:00:59.007Z,22.80
2023-05-06T08:03:25.918Z,22.80
2023-05-06T08:05:53.011Z,22.33
2023-05-06T08:08:19.835Z,20.45
2023-05-06T08:10:46.743Z,20.98
2023-05-06T08:13:13.628Z,23.70
2023-05-06T08:15:40.488Z,19.88
2023-05-06T08:18:21.103Z,22.43
2023-05-06T08:20:49.279Z,20.95
2023-05-06T08:23:16.020Z,19.48
2023-05-06T08:25:42.827Z,15.65
2023-05-06T08:28:09.348Z,19.75
2023-05-06T08:30:36.954Z,21.30
2023-05-06T08:33:03.899Z,21.25
2023-05-06T08:35:30.677Z,19.45
2023-05-06T08:37:57.254Z,20.20
2023-05-06T08:40:26.934Z,19.98
2023-05-06T08:42:56.077Z,18.17
2023-05-06T08:45:23.366Z,16.85
2023-05-06T08:47:50.096Z,18.50
2023-05-06T08:50:17.178Z,19.50
2023-05-06T08:52:43.904Z,19.70
2023-05-06T08:55:11.598Z,19.23
2023-05-06T08:57:38.648Z,18.77
2023-05-06T09:00:05.884Z,18.42
2023-05-06T09:02:32.500Z,17.77
2023-05-06T09:04:59.840Z,18.50
2023-05-06T09:07:26.842Z,18.37
2023-05-06T09:09:53.671Z,17.20
2023-05-06T09:12:20.221Z,14.95
2023-05-06T09:14:50.593Z,16.63
2023-05-06T09:17:24.228Z,16.42
2023-05-06T09:19:53.215Z,17.40
2023-05-06T09:22:23.904Z,17.38
2023-05-06T09:24:57.288Z,16.63
2023-05-06T09:27:31.769Z,12.70
2023-05-06T09:30:06.945Z,13.10
2023-05-06T09:32:36.704Z,12.57
2023-05-06T09:35:05.216Z,12.85
2023-05-06T09:37:31.958Z,11.80
2023-05-06T09:40:00.362Z,13.45
2023-05-06T09:42:28.886Z,12.18
2023-05-06T09:45:00.507Z,11.10
2023-05-06T09:47:34.223Z,11.63
2023-05-06T09:50:01.905Z,12.05
2023-05-06T09:52:29.594Z,10.23
2023-05-06T09:54:57.375Z,10.75
2023-05-06T09:57:24.546Z,12.23
2023-05-06T09:59:54.462Z,11.38
2023-05-06T10:02:23.686Z,11.27
2023-05-06T10:04:51.178Z,11.48
2023-05-06T10:07:22.733Z,11.02
2023-05-06T10:09:51.196Z,11.03
2023-05-06T10:12:18.254Z,12.77
2023-05-06T10:14:45.046Z,11.75
2023-05-06T10:17:12.978Z,8.55
2023-05-06T10:19:44.552Z,8.13
2023-05-06T10:22:41.467Z,8.07
2023-05-06T10:25:22.236Z,9.77
2023-05-06T10:27:49.009Z,8.68
2023-05-06T10:30:19.358Z,8.77
2023-05-06T10:32:46.131Z,7.25
2023-05-06T10:35:26.717Z,7.70
2023-05-06T10:37:54.934Z,9.43
2023-05-06T10:40:23.121Z,9.10
2023-05-06T10:42:51.232Z,8.25
2023-05-06T10:45:17.799Z,8.27
2023-05-06T10:47:56.546Z,6.03
2023-05-06T10:50:24.926Z,7.25
2023-05-06T10:52:59.110Z,7.57
2023-05-06T10:55:28.513Z,6.60
2023-05-06T10:58:06.191Z,6.97
2023-05-06T11:00:34.405Z,6.63
2023-05-06T11:03:02.932Z,6.45
2023-05-06T11:05:29.704Z,5.95
2023-05-06T11:08:10.305Z,5.93
2023-05-06T11:10:37.062Z,5.80
2023-05-06T11:13:26.450Z,6.30
2023-05-06T11:15:54.307Z,7.97
2023-05-06T11:18:27.963Z,6.40
2023-05-06T11:21:02.641Z,6.53
2023-05-06T11:23:41.887Z,6.22
2023-05-06T11:26:09.544Z,5.47
2023-05-06T11:28:36.352Z,5.72
2023-05-06T11:31:03.119Z,4.82
2023-05-06T11:33:34.141Z,7.05
2023-05-06T11:36:02.156Z,5.57
2023-05-06T11:38:56.390Z,5.80
2023-05-06T11:41:23.418Z,6.38
2023-05-06T11:43:51.932Z,6.80
2023-05-06T11:46:19.516Z,6.85
2023-05-06T11:48:46.671Z,6.30
2023-05-06T11:51:13.374Z,5.90
2023-05-06T11:53:40.198Z,5.50
2023-05-06T11:56:07.302Z,4.97
2023-05-06T11:58:34.075Z,4.85
2023-05-06T12:01:02.468Z,5.57
2023-05-06T12:03:31.331Z,5.10
2023-05-06T12:05:59.347Z,5.13
2023-05-06T12:08:36.873Z,5.70
2023-05-06T12:11:08.176Z,5.65
2023-05-06T12:13:37.143Z,4.57
2023-05-06T12:16:04.886Z,5.30
2023-05-06T12:18:32.124Z,6.30
2023-05-06T12:21:02.466Z,5.38
2023-05-06T12:23:29.224Z,6.50
2023-05-06T12:26:04.420Z,6.20
2023-05-06T12:28:32.319Z,6.93
2023-05-06T12:30:59.244Z,6.63
2023-05-06T12:33:26.159Z,5.45
2023-05-06T12:35:54.989Z,3.95
2023-05-06T12:38:21.596Z,5.10
2023-05-06T12:40:55.150Z,3.93
2023-05-06T12:43:30.601Z,3.83
2023-05-06T12:46:05.349Z,4.30
2023-05-06T12:48:32.026Z,4.43
2023-05-06T12:50:58.696Z,4.57
2023-05-06T12:53:33.891Z,4.43
2023-05-06T12:56:00.517Z,4.07
2023-05-06T12:58:27.088Z,3.80
2023-05-06T13:00:53.780Z,4.10
2023-05-06T13:03:20.523Z,4.03
2023-05-06T13:05:49.960Z,4.17
2023-05-06T13:08:16.747Z,5.68
2023-05-06T13:10:43.350Z,5.30
2023-05-06T13:13:10.156Z,5.80
2023-05-06T13:15:36.991Z,5.05
2023-05-06T13:18:03.709Z,4.80
2023-05-06T13:20:30.479Z,4.20
2023-05-06T13:22:57.125Z,3.97
2023-05-06T13:25:23.718Z,4.47
2023-05-06T13:27:50.234Z,4.38
2023-05-06T13:30:17.180Z,3.10
2023-05-06T13:32:43.928Z,2.35
2023-05-06T13:35:10.844Z,2.38
2023-05-06T13:37:37.665Z,1.92
2023-05-06T13:40:04.851Z,3.40
2023-05-06T13:42:31.739Z,2.80
2023-05-06T13:44:58.341Z,3.35
2023-05-06T13:47:25.310Z,3.95
2023-05-06T13:49:51.922Z,3.38
2023-05-06T13:52:18.480Z,3.60
2023-05-06T13:54:45.347Z,2.10
2023-05-06T13:57:11.880Z,2.72
2023-05-06T13:59:38.546Z,1.65
2023-05-06T14:02:09.382Z,1.92
2023-05-06T14:04:36.533Z,2.20
2023-05-06T14:07:03.217Z,1.80
2023-05-06T14:09:29.765Z,1.90
2023-05-06T14:11:56.388Z,2.20
2023-05-06T14:14:23.153Z,2.63
2023-05-06T14:16:51.780Z,3.50
2023-05-06T14:19:18.353Z,3.00
2023-05-06T14:21:45.101Z,2.90
2023-05-06T14:24:12.722Z,3.05
2023-05-06T14:26:40.383Z,2.67
2023-05-06T14:29:07.021Z,3.05
2023-05-06T14:31:34.452Z,2.57
2023-05-06T14:34:02.109Z,2.17
2023-05-06T14:36:28.712Z,1.98
2023-05-06T14:38:55.411Z,2.38
2023-05-06T14:41:22.093Z,2.25
2023-05-06T14:43:48.865Z,2.40
2023-05-06T14:46:16.027Z,2.50
2023-05-06T14:48:43.377Z,2.20
2023-05-06T14:51:10.056Z,2.17
2023-05-06T14:53:36.719Z,4.07
2023-05-06T14:56:03.187Z,4.23
2023-05-06T14:58:29.726Z,2.70
2023-05-06T15:00:56.956Z,3.03
2023-05-06T15:03:23.602Z,2.88
2023-05-06T15:05:51.010Z,2.65
2023-05-06T15:08:17.628Z,2.60
2023-05-06T15:10:44.538Z,2.45
2023-05-06T15:13:11.320Z,3.13
2023-05-06T15:15:37.891Z,2.80
2023-05-06T15:18:04.594Z,2.63
2023-05-06T15:20:31.584Z,3.63
2023-05-06T15:22:58.306Z,1.67
2023-05-06T15:25:35.145Z,2.00
2023-05-06T15:28:02.477Z,1.90
2023-05-06T15:30:29.137Z,2.25
2023-05-06T15:32:55.775Z,2.50
2023-05-06T15:35:22.539Z,2.05
2023-05-06T15:37:49.113Z,2.47
2023-05-06T15:40:15.653Z,2.17
2023-05-06T15:42:42.323Z,2.10
2023-05-06T15:45:15.836Z,2.30
2023-05-06T15:47:42.594Z,2.42
2023-05-06T15:50:20.107Z,2.40
2023-05-06T15:52:51.677Z,3.15
2023-05-06T15:55:19.460Z,2.42
2023-05-06T15:57:46.431Z,2.80
2023-05-06T16:00:14.033Z,2.67
2023-05-06T16:02:40.974Z,2.72
2023-05-06T16:05:09.742Z,4.35
2023-05-06T16:07:36.380Z,8.63
2023-05-06T16:10:03.261Z,10.30
2023-05-06T16:12:32.939Z,11.52
2023-05-06T16:15:01.163Z,9.38
2023-05-06T16:17:27.845Z,11.63
2023-05-06T16:19:54.492Z,11.70
2023-05-06T16:22:21.025Z,10.77
2023-05-06T16:24:47.574Z,11.88
2023-05-06T16:27:15.928Z,11.20
2023-05-06T16:29:42.668Z,11.63
2023-05-06T16:32:09.440Z,11.63
2023-05-06T16:34:38.888Z,10.90
2023-05-06T16:37:07.805Z,11.32
2023-05-06T16:39:34.495Z,11.38
2023-05-06T16:42:01.812Z,10.30
2023-05-06T16:44:29.201Z,9.90
2023-05-06T16:46:56.073Z,10.37
2023-05-06T16:49:22.915Z,10.95
2023-05-06T16:51:49.587Z,10.38
2023-05-06T16:54:16.193Z,9.50
2023-05-06T16:56:51.438Z,9.77
2023-05-06T16:59:22.020Z,9.03
2023-05-06T17:01:49.863Z,8.18
2023-05-06T17:04:16.803Z,9.25
2023-05-06T17:06:43.400Z,9.40
2023-05-06T17:09:10.138Z,9.52
2023-05-06T17:11:36.809Z,9.70
2023-05-06T17:14:03.746Z,9.85
2023-05-06T17:16:30.434Z,10.50
2023-05-06T17:18:56.992Z,10.05
2023-05-06T17:21:23.804Z,9.40
2023-05-06T17:23:51.389Z,9.43
2023-05-06T17:26:18.399Z,8.00
2023-05-06T17:28:45.131Z,9.02
2023-05-06T17:31:11.946Z,9.70
2023-05-06T17:33:38.612Z,8.52
2023-05-06T17:36:05.627Z,9.43
2023-05-06T17:38:32.376Z,9.57
2023-05-06T17:40:59.000Z,10.02
2023-05-06T17:43:25.720Z,9.60
2023-05-06T17:45:52.590Z,8.77
2023-05-06T17:48:19.086Z,8.87
2023-05-06T17:50:46.072Z,9.25
2023-05-06T17:53:12.657Z,9.13
2023-05-06T17:55:39.788Z,9.75
2023-05-06T17:58:06.636Z,10.00
2023-05-06T18:00:33.349Z,9.23
2023-05-06T18:03:00.324Z,9.85
2023-05-06T18:05:27.815Z,10.27
2023-05-06T18:07:54.525Z,8.93
2023-05-06T18:10:21.277Z,10.48
2023-05-06T18:12:48.199Z,9.00
2023-05-06T18:15:14.868Z,10.32
2023-05-06T18:17:41.556Z,9.23
2023-05-06T18:20:08.806Z,9.50
2023-05-06T18:22:36.190Z,10.23
2023-05-06T18:25:04.313Z,10.10
2023-05-06T18:27:32.224Z,10.38
2023-05-06T18:29:59.416Z,10.32
2023-05-06T18:32:26.206Z,9.82
2023-05-06T18:34:57.335Z,8.98
2023-05-06T18:37:24.041Z,11.00
2023-05-06T18:39:50.674Z,10.27
2023-05-06T18:42:17.269Z,10.13
2023-05-06T18:44:43.984Z,11.02
2023-05-06T18:47:10.576Z,9.35
2023-05-06T18:49:37.343Z,9.53
2023-05-06T18:52:04.582Z,8.60
2023-05-06T18:54:31.340Z,8.10
2023-05-06T18:56:58.720Z,7.20
2023-05-06T18:59:25.975Z,6.28
2023-05-06T19:01:52.538Z,5.50
2023-05-06T19:04:19.201Z,5.05
2023-05-06T19:06:45.766Z,5.10
2023-05-06T19:09:12.794Z,5.25
2023-05-06T19:11:39.507Z,5.10
2023-05-06T19:14:06.090Z,4.53
2023-05-06T19:16:32.727Z,4.68
2023-05-06T19:18:59.341Z,5.10
2023-05-06T19:21:26.465Z,5.15
2023-05-06T19:23:54.464Z,5.43
2023-05-06T19:26:21.644Z,5.10
2023-05-06T19:28:48.292Z,4.35
2023-05-06T19:31:15.095Z,4.90
2023-05-06T19:33:42.982Z,5.00
2023-05-06T19:36:09.888Z,4.88
2023-05-06T19:38:36.775Z,4.27
2023-05-06T19:41:04.213Z,4.50
2023-05-06T19:43:31.017Z,5.22
2023-05-06T19:45:57.849Z,4.88
2023-05-06T19:48:24.442Z,4.47
2023-05-06T19:50:53.824Z,4.70
2023-05-06T19:53:22.834Z,5.80
2023-05-06T19:55:49.592Z,5.55
2023-05-06T19:58:17.305Z,5.40
2023-05-06T20:00:44.864Z,4.70
2023-05-06T20:03:11.704Z,4.90
2023-05-06T20:05:38.309Z,5.30
2023-05-06T20:08:05.051Z,5.45
2023-05-06T20:10:31.692Z,5.30
2023-05-06T20:12:58.312Z,4.57
2023-05-06T20:15:25.214Z,4.93
2023-05-06T20:17:54.535Z,5.07
2023-05-06T20:20:21.297Z,4.15
2023-05-06T20:22:47.919Z,4.00
2023-05-06T20:25:17.460Z,4.97
2023-05-06T20:27:45.354Z,4.77
2023-05-06T20:30:12.486Z,5.50
2023-05-06T20:32:40.398Z,4.75
2023-05-06T20:35:07.625Z,4.35
2023-05-06T20:37:35.369Z,5.13
2023-05-06T20:40:04.759Z,4.20
2023-05-06T20:42:32.136Z,3.90
2023-05-06T20:44:58.938Z,4.45
2023-05-06T20:47:26.011Z,4.43
2023-05-06T20:49:52.878Z,5.05
2023-05-06T20:52:21.434Z,3.47
2023-05-06T20:54:48.701Z,3.92
2023-05-06T20:57:16.593Z,3.72
2023-05-06T20:59:43.647Z,3.65
2023-05-06T21:02:10.649Z,3.10
2023-05-06T21:04:41.389Z,3.83
2023-05-06T21:07:08.063Z,3.80
2023-05-06T21:09:34.665Z,3.58
2023-05-06T21:12:01.502Z,4.13
2023-05-06T21:14:28.302Z,3.95
2023-05-06T21:16:55.113Z,3.93
2023-05-06T21:19:21.736Z,4.13
2023-05-06T21:21:48.492Z,4.20
2023-05-06T21:24:15.366Z,4.57
2023-05-06T21:26:42.013Z,4.13
2023-05-06T21:29:08.684Z,4.33
2023-05-06T21:31:35.421Z,5.40
2023-05-06T21:34:03.574Z,3.58
2023-05-06T21:36:30.215Z,4.30
2023-05-06T21:39:11.999Z,4.78
2023-05-06T21:41:39.875Z,5.07
2023-05-06T21:44:07.857Z,4.07
2023-05-06T21:46:34.978Z,4.50
2023-05-06T21:49:01.780Z,4.93
2023-05-06T21:51:30.507Z,5.00
2023-05-06T21:53:57.160Z,5.10
2023-05-06T21:56:24.432Z,4.43
2023-05-06T21:58:52.426Z,4.70
2023-05-06T22:01:19.246Z,4.57
2023-05-06T22:03:46.347Z,3.90
2023-05-06T22:06:13.046Z,4.93
2023-05-06T22:08:40.837Z,5.85
2023-05-06T22:11:07.546Z,3.63
2023-05-06T22:13:34.266Z,4.20
2023-05-06T22:16:01.139Z,3.30
2023-05-06T22:18:30.196Z,5.07
2023-05-06T22:20:57.900Z,4.82
2023-05-06T22:23:40.426Z,4.68
2023-05-06T22:26:07.349Z,5.00
2023-05-06T22:28:34.108Z,5.13
2023-05-06T22:31:00.735Z,4.90
2023-05-06T22:33:27.378Z,4.50
2023-05-06T22:35:53.920Z,5.10
2023-05-06T22:38:20.527Z,5.20
2023-05-06T22:40:47.152Z,5.53
2023-05-06T22:43:13.628Z,4.88
2023-05-06T22:45:40.422Z,5.37
2023-05-06T22:48:07.055Z,5.47
2023-05-06T22:50:33.600Z,6.32
2023-05-06T22:53:04.900Z,5.60
2023-05-06T22:55:38.323Z,5.28
2023-05-06T22:58:05.029Z,5.07
2023-05-06T23:00:31.921Z,6.45
2023-05-06T23:02:58.588Z,5.60
2023-05-06T23:05:25.099Z,4.57
2023-05-06T23:07:51.639Z,4.45
2023-05-06T23:10:18.815Z,5.40
2023-05-06T23:12:45.393Z,4.07
2023-05-06T23:15:12.261Z,3.45
2023-05-06T23:17:39.146Z,4.80
2023-05-06T23:20:06.326Z,4.25
2023-05-06T23:22:32.871Z,6.33
2023-05-06T23:24:59.538Z,4.65
2023-05-06T23:27:26.072Z,5.40
2023-05-06T23:29:52.718Z,6.13
2023-05-06T23:32:19.172Z,6.00
2023-05-06T23:34:45.739Z,4.63
2023-05-06T23:37:12.499Z,6.72
2023-05-06T23:39:39.055Z,8.02
2023-05-06T23:42:05.669Z,5.10
2023-05-06T23:44:32.204Z,5.93
2023-05-06T23:46:58.747Z,5.07
2023-05-06T23:49:25.227Z,6.18
2023-05-06T23:51:51.838Z,6.35
2023-05-06T23:54:18.363Z,9.20
2023-05-06T23:56:44.956Z,5.25
2023-05-06T23:59:11.672Z,9.80
